sensor_id;sensor_type;location;lat;lon;timestamp;pressure;altitude;pressure_sealevel;temperature;humidity
13604;BME280;24578;48.264;11.436;2023-12-28T00:05:59;96356.94;;;-0.72;100.00
13604;BME280;24578;48.264;11.436;2023-12-28T00:12:01;96355.34;;;-0.76;100.00
13604;BME280;24578;48.264;11.436;2023-12-28T00:18:03;96347.63;;;-0.73;100.00
13604;BME280;24578;48.264;11.436;2023-12-28T00:24:05;96358.63;;;-0.72;100.00
13604;BME280;24578;48.264;11.436;2023-12-28T00:30:07;96367.97;;;-0.73;100.00
13604;BME280;24578;48.264;11.436;2023-12-28T00:36:09;96353.66;;;-0.77;100.00
13604;BME280;24578;48.264;11.436;2023-12-28T00:42:11;96353.75;;;-0.80;100.00
13604;BME280;24578;48.264;11.436;2023-12-28T00:48:12;96350.19;;;-0.73;100.00
13604;BME280;24578;48.264;11.436;2023-12-28T00:54:14;96347.59;;;-0.71;100.00
13604;BME280;24578;48.264;11.436;2023-12-28T01:00:16;96354.53;;;-0.78;100.00
13604;BME280;24578;48.264;11.436;2023-12-28T01:06:18;96365.81;;;-0.88;100.00
13604;BME280;24578;48.264;11.436;2023-12-28T01:12:19;96369.91;;;-0.83;100.00
13604;BME280;24578;48.264;11.436;2023-12-28T01:18:21;96386.06;;;-0.85;100.00
13604;BME280;24578;48.264;11.436;2023-12-28T01:24:23;96394.47;;;-0.83;100.00
13604;BME280;24578;48.264;11.436;2023-12-28T01:30:26;96399.38;;;-0.75;100.00
13604;BME280;24578;48.264;11.436;2023-12-28T01:36:28;96412.78;;;-0.69;100.00
13604;BME280;24578;48.264;11.436;2023-12-28T01:42:31;96410.41;;;-0.75;100.00
13604;BME280;24578;48.264;11.436;2023-12-28T01:48:33;96415.59;;;-0.80;100.00
13604;BME280;24578;48.264;11.436;2023-12-28T01:54:36;96418.31;;;-0.87;100.00
13604;BME280;24578;48.264;11.436;2023-12-28T02:00:38;96425.16;;;-0.91;100.00
13604;BME280;24578;48.264;11.436;2023-12-28T02:06:40;96415.19;;;-0.99;100.00
13604;BME280;24578;48.264;11.436;2023-12-28T02:12:42;96416.22;;;-1.06;100.00
13604;BME280;24578;48.264;11.436;2023-12-28T02:18:48;96408.78;;;-1.15;100.00
13604;BME280;24578;48.264;11.436;2023-12-28T02:31:00;96402.94;;;-1.17;100.00
13604;BME280;24578;48.264;11.436;2023-12-28T02:37:04;96400.28;;;-1.13;100.00
13604;BME280;24578;48.264;11.436;2023-12-28T02:43:07;96386.66;;;-0.74;100.00
13604;BME280;24578;48.264;11.436;2023-12-28T02:49:09;96382.66;;;-0.50;100.00
13604;BME280;24578;48.264;11.436;2023-12-28T02:55:13;96383.00;;;-0.31;100.00
13604;BME280;24578;48.264;11.436;2023-12-28T03:01:15;96387.50;;;-0.09;100.00
13604;BME280;24578;48.264;11.436;2023-12-28T03:07:16;96389.50;;;-0.20;100.00
13604;BME280;24578;48.264;11.436;2023-12-28T03:13:18;96383.53;;;-0.51;100.00
13604;BME280;24578;48.264;11.436;2023-12-28T03:19:20;96393.25;;;-0.34;100.00
13604;BME280;24578;48.264;11.436;2023-12-28T03:25:22;96383.66;;;-0.55;100.00
13604;BME280;24578;48.264;11.436;2023-12-28T03:31:23;96382.44;;;-0.75;100.00
13604;BME280;24578;48.264;11.436;2023-12-28T03:37:54;96379.41;;;-0.89;100.00
13604;BME280;24578;48.264;11.436;2023-12-28T03:43:59;96389.06;;;-1.04;100.00
13604;BME280;24578;48.264;11.436;2023-12-28T03:50:05;96407.91;;;-1.13;100.00
13604;BME280;24578;48.264;11.436;2023-12-28T03:56:07;96404.78;;;-1.26;100.00
13604;BME280;24578;48.264;11.436;2023-12-28T04:02:11;96427.88;;;-1.35;100.00
13604;BME280;24578;48.264;11.436;2023-12-28T04:08:12;96409.81;;;-1.24;100.00
13604;BME280;24578;48.264;11.436;2023-12-28T04:14:14;96426.09;;;-1.31;100.00
13604;BME280;24578;48.264;11.436;2023-12-28T04:20:16;96420.41;;;-1.43;100.00
13604;BME280;24578;48.264;11.436;2023-12-28T04:26:19;96415.50;;;-1.52;100.00
13604;BME280;24578;48.264;11.436;2023-12-28T04:32:26;96405.13;;;-1.41;100.00
13604;BME280;24578;48.264;11.436;2023-12-28T04:38:29;96424.63;;;-1.42;100.00
13604;BME280;24578;48.264;11.436;2023-12-28T04:44:31;96422.25;;;-1.51;100.00
13604;BME280;24578;48.264;11.436;2023-12-28T04:50:33;96422.47;;;-1.62;100.00
13604;BME280;24578;48.264;11.436;2023-12-28T04:56:37;96431.00;;;-1.64;100.00
13604;BME280;24578;48.264;11.436;2023-12-28T05:02:39;96420.97;;;-1.69;100.00
13604;BME280;24578;48.264;11.436;2023-12-28T05:08:42;96438.72;;;-1.69;100.00
13604;BME280;24578;48.264;11.436;2023-12-28T05:14:44;96450.66;;;-1.73;100.00
13604;BME280;24578;48.264;11.436;2023-12-28T05:20:45;96459.09;;;-1.72;100.00
13604;BME280;24578;48.264;11.436;2023-12-28T05:26:47;96448.22;;;-1.79;100.00
13604;BME280;24578;48.264;11.436;2023-12-28T05:32:49;96444.88;;;-1.81;100.00
13604;BME280;24578;48.264;11.436;2023-12-28T05:38:51;96444.06;;;-1.81;100.00
13604;BME280;24578;48.264;11.436;2023-12-28T05:44:52;96440.25;;;-1.62;100.00
13604;BME280;24578;48.264;11.436;2023-12-28T05:50:54;96435.72;;;-1.47;100.00
13604;BME280;24578;48.264;11.436;2023-12-28T05:56:55;96442.28;;;-1.37;100.00
13604;BME280;24578;48.264;11.436;2023-12-28T06:02:57;96449.75;;;-1.31;100.00
13604;BME280;24578;48.264;11.436;2023-12-28T06:08:59;96445.31;;;-1.21;100.00
13604;BME280;24578;48.264;11.436;2023-12-28T06:15:00;96432.50;;;-1.16;100.00
13604;BME280;24578;48.264;11.436;2023-12-28T06:21:02;96439.25;;;-1.15;100.00
13604;BME280;24578;48.264;11.436;2023-12-28T06:27:07;96446.13;;;-1.17;100.00
13604;BME280;24578;48.264;11.436;2023-12-28T06:33:08;96452.72;;;-1.10;100.00
13604;BME280;24578;48.264;11.436;2023-12-28T06:39:10;96444.97;;;-1.05;100.00
13604;BME280;24578;48.264;11.436;2023-12-28T06:45:12;96453.53;;;-1.08;100.00
13604;BME280;24578;48.264;11.436;2023-12-28T06:51:18;96448.50;;;-1.11;100.00
13604;BME280;24578;48.264;11.436;2023-12-28T06:57:20;96449.66;;;-1.25;100.00
13604;BME280;24578;48.264;11.436;2023-12-28T07:03:21;96439.78;;;-1.39;100.00
13604;BME280;24578;48.264;11.436;2023-12-28T07:09:24;96441.59;;;-1.44;100.00
13604;BME280;24578;48.264;11.436;2023-12-28T07:15:26;96446.69;;;-1.45;100.00
13604;BME280;24578;48.264;11.436;2023-12-28T07:21:27;96455.88;;;-1.38;100.00
13604;BME280;24578;48.264;11.436;2023-12-28T07:27:29;96456.59;;;-1.33;100.00
13604;BME280;24578;48.264;11.436;2023-12-28T07:33:31;96460.56;;;-1.21;100.00
13604;BME280;24578;48.264;11.436;2023-12-28T07:39:33;96454.97;;;-0.98;100.00
13604;BME280;24578;48.264;11.436;2023-12-28T07:45:35;96453.38;;;-0.66;100.00
13604;BME280;24578;48.264;11.436;2023-12-28T07:51:40;96449.06;;;-0.27;100.00
13604;BME280;24578;48.264;11.436;2023-12-28T07:57:42;96464.81;;;0.19;100.00
13604;BME280;24578;48.264;11.436;2023-12-28T08:03:44;96448.22;;;0.65;100.00
13604;BME280;24578;48.264;11.436;2023-12-28T08:09:46;96453.28;;;1.24;100.00
13604;BME280;24578;48.264;11.436;2023-12-28T08:15:47;96453.63;;;1.92;100.00
13604;BME280;24578;48.264;11.436;2023-12-28T08:21:49;96451.97;;;2.62;100.00
13604;BME280;24578;48.264;11.436;2023-12-28T08:27:51;96449.56;;;3.48;100.00
13604;BME280;24578;48.264;11.436;2023-12-28T08:33:52;96444.56;;;4.47;100.00
13604;BME280;24578;48.264;11.436;2023-12-28T08:39:54;96446.28;;;5.58;97.28
13604;BME280;24578;48.264;11.436;2023-12-28T08:45:56;96430.28;;;6.55;72.82
13604;BME280;24578;48.264;11.436;2023-12-28T08:51:58;96435.16;;;7.24;65.94
13604;BME280;24578;48.264;11.436;2023-12-28T08:58:00;96427.44;;;7.85;55.96
13604;BME280;24578;48.264;11.436;2023-12-28T09:04:02;96430.63;;;8.62;55.24
13604;BME280;24578;48.264;11.436;2023-12-28T09:10:04;96434.00;;;9.19;53.25
13604;BME280;24578;48.264;11.436;2023-12-28T09:16:07;96429.47;;;9.63;52.06
13604;BME280;24578;48.264;11.436;2023-12-28T09:22:09;96443.00;;;10.07;51.26
13604;BME280;24578;48.264;11.436;2023-12-28T09:28:11;96444.09;;;10.68;50.76
13604;BME280;24578;48.264;11.436;2023-12-28T09:34:12;96437.41;;;11.51;49.04
13604;BME280;24578;48.264;11.436;2023-12-28T09:40:14;96442.22;;;11.80;48.31
13604;BME280;24578;48.264;11.436;2023-12-28T09:46:16;96418.88;;;12.49;46.75
13604;BME280;24578;48.264;11.436;2023-12-28T09:52:18;96411.44;;;13.55;43.57
13604;BME280;24578;48.264;11.436;2023-12-28T09:58:21;96417.00;;;13.62;40.55
13604;BME280;24578;48.264;11.436;2023-12-28T10:04:24;96416.59;;;13.46;41.09
13604;BME280;24578;48.264;11.436;2023-12-28T10:10:25;96428.78;;;13.66;41.25
13604;BME280;24578;48.264;11.436;2023-12-28T10:16:27;96431.13;;;13.69;40.89
13604;BME280;24578;48.264;11.436;2023-12-28T10:22:29;96423.09;;;13.73;40.27
13604;BME280;24578;48.264;11.436;2023-12-28T10:28:36;96420.94;;;13.78;39.68
13604;BME280;24578;48.264;11.436;2023-12-28T10:34:40;96417.00;;;13.62;40.33
13604;BME280;24578;48.264;11.436;2023-12-28T10:40:44;96401.06;;;13.77;39.31
13604;BME280;24578;48.264;11.436;2023-12-28T10:46:47;96399.84;;;13.81;39.59
13604;BME280;24578;48.264;11.436;2023-12-28T10:52:54;96393.59;;;13.18;39.96
13604;BME280;24578;48.264;11.436;2023-12-28T10:59:13;96386.88;;;12.49;41.16
13604;BME280;24578;48.264;11.436;2023-12-28T11:05:16;96379.94;;;12.15;42.38
13604;BME280;24578;48.264;11.436;2023-12-28T11:11:19;96375.69;;;12.14;41.58
13604;BME280;24578;48.264;11.436;2023-12-28T11:17:23;96364.38;;;12.15;41.48
13604;BME280;24578;48.264;11.436;2023-12-28T11:23:26;96355.59;;;11.82;41.87
13604;BME280;24578;48.264;11.436;2023-12-28T11:29:29;96360.41;;;11.87;42.16
13604;BME280;24578;48.264;11.436;2023-12-28T11:35:39;96347.56;;;11.85;41.86
13604;BME280;24578;48.264;11.436;2023-12-28T11:41:42;96343.16;;;12.22;40.79
13604;BME280;24578;48.264;11.436;2023-12-28T11:47:43;96335.31;;;13.00;39.79
13604;BME280;24578;48.264;11.436;2023-12-28T11:53:46;96345.03;;;13.19;39.22
13604;BME280;24578;48.264;11.436;2023-12-28T11:59:52;96349.22;;;12.55;38.59
13604;BME280;24578;48.264;11.436;2023-12-28T12:05:55;96336.97;;;12.23;40.01
13604;BME280;24578;48.264;11.436;2023-12-28T12:11:58;96333.44;;;11.90;42.39
13604;BME280;24578;48.264;11.436;2023-12-28T12:18:01;96336.69;;;11.57;42.81
13604;BME280;24578;48.264;11.436;2023-12-28T12:24:04;96332.53;;;11.43;42.76
13604;BME280;24578;48.264;11.436;2023-12-28T12:30:06;96335.88;;;11.21;44.14
13604;BME280;24578;48.264;11.436;2023-12-28T12:36:08;96327.69;;;11.03;45.09
13604;BME280;24578;48.264;11.436;2023-12-28T12:42:13;96329.50;;;10.90;46.68
13604;BME280;24578;48.264;11.436;2023-12-28T12:48:15;96324.16;;;10.80;47.68
13604;BME280;24578;48.264;11.436;2023-12-28T12:54:17;96319.47;;;10.61;48.50
13604;BME280;24578;48.264;11.436;2023-12-28T13:00:27;96308.94;;;10.51;49.02
13604;BME280;24578;48.264;11.436;2023-12-28T13:06:29;96321.81;;;10.40;49.59
13604;BME280;24578;48.264;11.436;2023-12-28T13:12:34;96315.28;;;10.34;50.15
13604;BME280;24578;48.264;11.436;2023-12-28T13:18:36;96309.91;;;10.24;50.52
13604;BME280;24578;48.264;11.436;2023-12-28T13:24:38;96306.66;;;10.09;51.73
13604;BME280;24578;48.264;11.436;2023-12-28T13:30:47;96307.97;;;10.15;51.23
13604;BME280;24578;48.264;11.436;2023-12-28T13:36:52;96322.25;;;10.20;52.13
13604;BME280;24578;48.264;11.436;2023-12-28T13:42:55;96317.06;;;10.20;52.52
13604;BME280;24578;48.264;11.436;2023-12-28T13:48:56;96320.47;;;10.21;52.65
13604;BME280;24578;48.264;11.436;2023-12-28T13:54:59;96325.16;;;10.16;53.01
13604;BME280;24578;48.264;11.436;2023-12-28T14:01:01;96323.09;;;10.08;53.47
13604;BME280;24578;48.264;11.436;2023-12-28T14:07:03;96324.09;;;10.05;53.99
13604;BME280;24578;48.264;11.436;2023-12-28T14:13:05;96328.59;;;10.03;54.26
13604;BME280;24578;48.264;11.436;2023-12-28T14:19:07;96334.16;;;9.97;54.63
13604;BME280;24578;48.264;11.436;2023-12-28T14:25:09;96333.84;;;9.89;55.26
13604;BME280;24578;48.264;11.436;2023-12-28T14:31:13;96338.00;;;9.79;55.16
13604;BME280;24578;48.264;11.436;2023-12-28T14:37:15;96346.47;;;9.68;56.24
13604;BME280;24578;48.264;11.436;2023-12-28T14:43:17;96346.16;;;9.59;56.44
13604;BME280;24578;48.264;11.436;2023-12-28T14:49:19;96357.59;;;9.42;57.69
13604;BME280;24578;48.264;11.436;2023-12-28T14:55:20;96340.75;;;9.24;58.34
13604;BME280;24578;48.264;11.436;2023-12-28T15:01:24;96345.97;;;9.09;58.90
13604;BME280;24578;48.264;11.436;2023-12-28T15:07:26;96353.78;;;8.95;59.95
13604;BME280;24578;48.264;11.436;2023-12-28T15:13:28;96357.66;;;8.88;60.99
13604;BME280;24578;48.264;11.436;2023-12-28T15:19:30;96362.13;;;8.71;62.25
13604;BME280;24578;48.264;11.436;2023-12-28T15:25:32;96363.25;;;8.67;62.25
13604;BME280;24578;48.264;11.436;2023-12-28T15:31:33;96349.91;;;8.60;62.53
13604;BME280;24578;48.264;11.436;2023-12-28T15:37:35;96359.41;;;8.60;61.65
13604;BME280;24578;48.264;11.436;2023-12-28T15:43:37;96355.34;;;8.56;61.91
13604;BME280;24578;48.264;11.436;2023-12-28T15:49:39;96354.13;;;8.47;61.70
13604;BME280;24578;48.264;11.436;2023-12-28T15:55:40;96351.56;;;8.47;62.11
13604;BME280;24578;48.264;11.436;2023-12-28T16:01:42;96327.81;;;8.56;60.33
13604;BME280;24578;48.264;11.436;2023-12-28T16:07:44;96330.47;;;8.55;60.04
13604;BME280;24578;48.264;11.436;2023-12-28T16:13:46;96325.50;;;8.51;59.86
13604;BME280;24578;48.264;11.436;2023-12-28T16:19:48;96336.19;;;8.45;60.54
13604;BME280;24578;48.264;11.436;2023-12-28T16:25:50;96321.44;;;8.47;59.66
13604;BME280;24578;48.264;11.436;2023-12-28T16:31:53;96338.22;;;8.40;60.06
13604;BME280;24578;48.264;11.436;2023-12-28T16:37:55;96341.91;;;8.36;61.25
13604;BME280;24578;48.264;11.436;2023-12-28T16:43:57;96345.22;;;8.23;61.92
13604;BME280;24578;48.264;11.436;2023-12-28T16:49:59;96344.16;;;8.13;62.20
13604;BME280;24578;48.264;11.436;2023-12-28T16:56:01;96344.22;;;8.12;61.67
13604;BME280;24578;48.264;11.436;2023-12-28T17:02:03;96339.16;;;8.10;62.90
13604;BME280;24578;48.264;11.436;2023-12-28T17:08:05;96332.19;;;7.98;63.92
13604;BME280;24578;48.264;11.436;2023-12-28T17:14:08;96335.03;;;7.93;64.12
13604;BME280;24578;48.264;11.436;2023-12-28T17:20:16;96333.84;;;7.84;64.88
13604;BME280;24578;48.264;11.436;2023-12-28T17:26:28;96332.19;;;7.83;65.13
13604;BME280;24578;48.264;11.436;2023-12-28T17:32:43;96333.63;;;7.87;64.36
13604;BME280;24578;48.264;11.436;2023-12-28T17:38:47;96326.28;;;7.81;65.84
13604;BME280;24578;48.264;11.436;2023-12-28T17:44:54;96318.00;;;7.76;67.71
13604;BME280;24578;48.264;11.436;2023-12-28T17:50:58;96320.22;;;7.68;68.58
13604;BME280;24578;48.264;11.436;2023-12-28T17:57:00;96308.13;;;7.54;68.81
13604;BME280;24578;48.264;11.436;2023-12-28T18:03:04;96320.28;;;7.52;67.81
13604;BME280;24578;48.264;11.436;2023-12-28T18:09:05;96322.09;;;7.50;67.01
13604;BME280;24578;48.264;11.436;2023-12-28T18:15:07;96326.28;;;7.52;66.93
13604;BME280;24578;48.264;11.436;2023-12-28T18:21:12;96334.75;;;7.54;66.41
13604;BME280;24578;48.264;11.436;2023-12-28T18:27:14;96333.91;;;7.54;65.94
13604;BME280;24578;48.264;11.436;2023-12-28T18:33:16;96330.69;;;7.50;66.08
13604;BME280;24578;48.264;11.436;2023-12-28T18:39:22;96318.78;;;7.47;66.06
13604;BME280;24578;48.264;11.436;2023-12-28T18:45:28;96317.50;;;7.40;67.79
13604;BME280;24578;48.264;11.436;2023-12-28T18:51:30;96312.81;;;7.32;68.75
13604;BME280;24578;48.264;11.436;2023-12-28T18:57:32;96314.63;;;7.30;70.05
13604;BME280;24578;48.264;11.436;2023-12-28T19:03:33;96313.88;;;7.28;69.43
13604;BME280;24578;48.264;11.436;2023-12-28T19:09:48;96315.19;;;7.21;71.56
13604;BME280;24578;48.264;11.436;2023-12-28T19:15:50;96306.13;;;7.14;73.00
13604;BME280;24578;48.264;11.436;2023-12-28T19:21:52;96307.84;;;7.44;88.64
13604;BME280;24578;48.264;11.436;2023-12-28T19:27:54;96296.13;;;7.24;80.95
13604;BME280;24578;48.264;11.436;2023-12-28T19:33:56;96292.19;;;7.18;80.27
13604;BME280;24578;48.264;11.436;2023-12-28T19:39:57;96293.53;;;7.09;79.10
13604;BME280;24578;48.264;11.436;2023-12-28T19:46:02;96315.63;;;6.97;81.43
13604;BME280;24578;48.264;11.436;2023-12-28T19:52:05;96317.47;;;6.95;80.21
13604;BME280;24578;48.264;11.436;2023-12-28T19:58:07;96314.06;;;6.95;80.74
13604;BME280;24578;48.264;11.436;2023-12-28T20:04:09;96315.81;;;6.94;78.71
13604;BME280;24578;48.264;11.436;2023-12-28T20:10:10;96309.19;;;6.90;79.69
13604;BME280;24578;48.264;11.436;2023-12-28T20:16:12;96324.63;;;6.90;77.50
13604;BME280;24578;48.264;11.436;2023-12-28T20:22:14;96319.81;;;7.00;73.62
13604;BME280;24578;48.264;11.436;2023-12-28T20:28:16;96316.06;;;7.06;71.70
13604;BME280;24578;48.264;11.436;2023-12-28T20:34:18;96313.09;;;7.12;71.72
13604;BME280;24578;48.264;11.436;2023-12-28T20:40:20;96305.03;;;7.18;70.50
13604;BME280;24578;48.264;11.436;2023-12-28T20:46:21;96313.94;;;7.12;68.76
13604;BME280;24578;48.264;11.436;2023-12-28T20:52:23;96317.75;;;7.21;67.91
13604;BME280;24578;48.264;11.436;2023-12-28T20:58:25;96305.81;;;7.35;67.02
13604;BME280;24578;48.264;11.436;2023-12-28T21:04:27;96305.53;;;7.25;68.94
13604;BME280;24578;48.264;11.436;2023-12-28T21:10:29;96320.13;;;7.24;70.35
13604;BME280;24578;48.264;11.436;2023-12-28T21:16:33;96319.84;;;7.14;71.78
13604;BME280;24578;48.264;11.436;2023-12-28T21:22:35;96319.09;;;7.12;74.10
13604;BME280;24578;48.264;11.436;2023-12-28T21:28:37;96309.44;;;7.16;75.39
13604;BME280;24578;48.264;11.436;2023-12-28T21:34:39;96326.88;;;7.27;76.52
13604;BME280;24578;48.264;11.436;2023-12-28T21:40:40;96326.94;;;7.25;79.06
13604;BME280;24578;48.264;11.436;2023-12-28T21:46:43;96324.56;;;7.22;84.12
13604;BME280;24578;48.264;11.436;2023-12-28T21:52:44;96316.91;;;7.21;87.98
13604;BME280;24578;48.264;11.436;2023-12-28T21:58:46;96318.56;;;7.22;92.41
13604;BME280;24578;48.264;11.436;2023-12-28T22:04:50;96332.81;;;7.27;94.76
13604;BME280;24578;48.264;11.436;2023-12-28T22:10:51;96319.03;;;7.28;98.09
13604;BME280;24578;48.264;11.436;2023-12-28T22:16:53;96315.84;;;7.39;100.00
13604;BME280;24578;48.264;11.436;2023-12-28T22:22:55;96312.25;;;7.42;100.00
13604;BME280;24578;48.264;11.436;2023-12-28T22:28:57;96328.56;;;7.57;100.00
13604;BME280;24578;48.264;11.436;2023-12-28T22:34:58;96330.22;;;7.58;100.00
13604;BME280;24578;48.264;11.436;2023-12-28T22:41:01;96346.88;;;7.52;100.00
13604;BME280;24578;48.264;11.436;2023-12-28T22:47:03;96340.88;;;7.52;100.00
13604;BME280;24578;48.264;11.436;2023-12-28T22:53:04;96339.91;;;7.54;100.00
13604;BME280;24578;48.264;11.436;2023-12-28T22:59:07;96333.25;;;7.50;100.00
13604;BME280;24578;48.264;11.436;2023-12-28T23:05:09;96328.63;;;7.41;100.00
13604;BME280;24578;48.264;11.436;2023-12-28T23:11:10;96331.56;;;7.35;100.00
13604;BME280;24578;48.264;11.436;2023-12-28T23:17:12;96325.63;;;7.18;100.00
13604;BME280;24578;48.264;11.436;2023-12-28T23:23:14;96320.94;;;7.10;100.00
13604;BME280;24578;48.264;11.436;2023-12-28T23:29:16;96321.38;;;7.03;100.00
13604;BME280;24578;48.264;11.436;2023-12-28T23:35:19;96310.66;;;6.94;100.00
13604;BME280;24578;48.264;11.436;2023-12-28T23:41:20;96306.97;;;6.84;100.00
13604;BME280;24578;48.264;11.436;2023-12-28T23:47:22;96296.94;;;6.63;100.00
13604;BME280;24578;48.264;11.436;2023-12-28T23:53:24;96300.94;;;6.53;100.00
13604;BME280;24578;48.264;11.436;2023-12-28T23:59:25;96299.97;;;6.39;100.00
